Time;durP1;ratioP1;P1;durP2;ratioP2;P2;SDS_P1;SDS_P2;PMS_P1;PMS_P2;Temp;Humidity;BMP_temperature;BMP_pressure;BME280_temperature;BME280_humidity;BME280_pressure;Samples;Min_cycle;Max_cycle;Signal;HPM_P1;HPM_P2
2024/02/02 00:00:12;;;;;;;20.25;10.23;;;4.10;99.90;;;;;;6198219;23;20017;-80
2024/02/02 00:02:41;;;;;;;15.82;8.45;;;4.00;99.90;;;;;;6199781;23;20044;-79
2024/02/02 00:05:09;;;;;;;16.30;7.93;;;4.10;99.90;;;;;;6197811;23;20031;-79
2024/02/02 00:07:38;;;;;;;18.27;8.82;;;3.90;99.90;;;;;;6195879;23;20017;-80
2024/02/02 00:10:10;;;;;;;17.73;7.97;;;4.00;99.90;;;;;;6198852;23;20031;-77
2024/02/02 00:12:42;;;;;;;19.73;9.25;;;3.90;99.90;;;;;;6189941;23;20354;-77
2024/02/02 00:15:24;;;;;;;19.17;8.95;;;4.00;99.90;;;;;;6187843;23;20103;-76
2024/02/02 00:17:54;;;;;;;18.67;9.07;;;3.90;99.90;;;;;;6188554;23;20080;-76
2024/02/02 00:20:23;;;;;;;17.38;10.32;;;4.00;99.90;;;;;;6187630;23;20099;-77
2024/02/02 00:22:58;;;;;;;19.40;10.27;;;4.00;99.90;;;;;;6187879;23;20024;-77
2024/02/02 00:25:27;;;;;;;21.38;9.63;;;4.00;99.90;;;;;;6187453;23;20025;-77
2024/02/02 00:28:00;;;;;;;16.42;9.35;;;4.00;99.90;;;;;;6187408;23;20017;-76
2024/02/02 00:30:34;;;;;;;16.08;8.00;;;4.00;99.90;;;;;;6187190;23;20052;-78
2024/02/02 00:33:03;;;;;;;16.17;8.50;;;4.00;99.90;;;;;;6187717;23;20032;-77
2024/02/02 00:35:42;;;;;;;15.45;8.48;;;3.90;99.90;;;;;;6187742;23;20350;-77
2024/02/02 00:38:14;;;;;;;19.08;9.80;;;4.00;99.90;;;;;;6188253;23;20354;-76
2024/02/02 00:40:42;;;;;;;18.90;9.85;;;4.00;99.90;;;;;;6187332;23;20059;-76
2024/02/02 00:43:14;;;;;;;15.60;8.60;;;3.90;99.90;;;;;;6188411;23;20052;-76
2024/02/02 00:45:45;;;;;;;18.48;9.35;;;3.90;99.90;;;;;;6187341;23;20424;-76
2024/02/02 00:48:14;;;;;;;17.92;9.05;;;3.90;99.90;;;;;;6188284;23;20028;-78
2024/02/02 00:50:51;;;;;;;17.45;8.52;;;4.00;99.90;;;;;;6186928;23;20031;-76
2024/02/02 00:53:25;;;;;;;15.25;8.02;;;3.90;99.90;;;;;;6187018;23;20029;-77
2024/02/02 00:55:53;;;;;;;17.85;8.90;;;3.90;99.90;;;;;;6187633;23;20025;-77
2024/02/02 00:58:24;;;;;;;17.15;7.68;;;3.90;99.90;;;;;;6186412;23;20021;-76
2024/02/02 01:00:53;;;;;;;14.75;7.45;;;3.90;99.90;;;;;;6187473;23;20099;-77
2024/02/02 01:03:22;;;;;;;15.98;6.82;;;3.90;99.90;;;;;;6187140;23;20025;-77
2024/02/02 01:05:50;;;;;;;18.60;8.98;;;3.90;99.90;;;;;;6186545;23;20107;-76
2024/02/02 01:08:21;;;;;;;13.85;7.25;;;3.80;99.90;;;;;;6187096;23;20510;-76
2024/02/02 01:10:50;;;;;;;17.15;7.63;;;3.90;99.90;;;;;;6187202;23;20075;-77
2024/02/02 01:13:19;;;;;;;15.13;8.65;;;3.90;99.90;;;;;;6187313;23;20024;-76
2024/02/02 01:15:49;;;;;;;14.88;7.40;;;3.90;99.90;;;;;;6186997;23;20319;-76
2024/02/02 01:18:18;;;;;;;15.65;6.85;;;3.90;99.90;;;;;;6155816;23;20033;-76
2024/02/02 01:20:47;;;;;;;15.30;6.25;;;3.90;99.90;;;;;;6131490;23;20022;-76
2024/02/02 01:23:15;;;;;;;13.43;6.70;;;3.90;99.90;;;;;;6132321;23;20025;-77
2024/02/02 01:25:46;;;;;;;16.98;6.43;;;3.80;99.90;;;;;;6126396;23;20026;-76
2024/02/02 01:28:18;;;;;;;12.23;6.80;;;3.80;99.90;;;;;;6103076;23;20029;-77
2024/02/02 01:30:47;;;;;;;13.70;6.50;;;3.80;99.90;;;;;;6127244;23;20032;-76
2024/02/02 01:33:23;;;;;;;12.52;6.25;;;3.80;99.90;;;;;;6102272;23;20111;-76
2024/02/02 01:35:54;;;;;;;13.57;6.97;;;3.80;99.90;;;;;;6127258;23;20391;-76
2024/02/02 01:38:31;;;;;;;14.18;6.32;;;3.80;99.90;;;;;;6102209;23;20077;-76
2024/02/02 01:40:59;;;;;;;15.25;6.72;;;3.80;99.90;;;;;;6126617;23;20511;-79
2024/02/02 01:43:29;;;;;;;13.90;6.55;;;3.70;99.90;;;;;;6126637;23;20162;-76
2024/02/02 01:46:00;;;;;;;13.63;6.60;;;3.80;99.90;;;;;;6127962;23;20388;-76
2024/02/02 01:48:32;;;;;;;12.82;5.15;;;3.80;99.90;;;;;;6109477;23;20026;-76
2024/02/02 01:51:07;;;;;;;11.05;5.75;;;3.70;99.90;;;;;;6163328;23;20462;-76
2024/02/02 01:53:38;;;;;;;10.98;5.18;;;3.60;99.90;;;;;;6164301;23;20028;-76
2024/02/02 01:56:14;;;;;;;;;;;3.60;99.90;;;;;;6164490;23;20028;-77
2024/02/02 01:58:50;;;;;;;12.85;4.90;;;3.60;99.90;;;;;;6190397;23;19917;-77
2024/02/02 02:01:21;;;;;;;12.63;5.13;;;3.60;99.90;;;;;;6188520;23;20108;-77
2024/02/02 02:06:35;;;;;;;12.40;4.38;;;3.60;99.90;;;;;;6163419;23;20051;-76
2024/02/02 02:09:06;;;;;;;10.93;4.78;;;3.50;99.90;;;;;;6187547;23;20025;-77
2024/02/02 02:11:35;;;;;;;14.05;5.10;;;3.50;99.90;;;;;;6163578;23;20025;-76
2024/02/02 02:14:04;;;;;;;8.80;4.57;;;3.50;99.90;;;;;;6163925;23;20028;-76
2024/02/02 02:16:37;;;;;;;9.55;4.50;;;3.50;99.90;;;;;;6163884;23;20077;-76
2024/02/02 02:19:15;;;;;;;10.75;4.55;;;3.60;99.90;;;;;;6163575;23;20028;-76
2024/02/02 02:21:45;;;;;;;9.43;4.07;;;3.50;99.90;;;;;;6163891;23;20443;-76
2024/02/02 02:24:14;;;;;;;10.65;4.70;;;3.60;99.90;;;;;;6162922;23;20031;-76
2024/02/02 02:26:44;;;;;;;8.82;3.83;;;3.60;99.90;;;;;;6190249;23;20017;-76
2024/02/02 02:29:16;;;;;;;10.27;4.22;;;3.60;99.90;;;;;;6188423;23;20025;-76
2024/02/02 02:31:53;;;;;;;9.37;4.03;;;3.50;99.90;;;;;;6193888;23;20048;-83
2024/02/02 02:34:24;;;;;;;9.20;3.83;;;3.50;99.90;;;;;;6208668;23;20076;-81
2024/02/02 02:36:54;;;;;;;9.10;4.32;;;3.40;99.90;;;;;;6208847;23;20021;-81
2024/02/02 02:39:23;;;;;;;11.00;3.85;;;3.40;99.90;;;;;;6209296;23;20001;-81
2024/02/02 02:41:52;;;;;;;7.07;3.33;;;3.30;99.90;;;;;;6209924;23;20048;-81
2024/02/02 02:44:20;;;;;;;13.98;5.40;;;3.30;99.90;;;;;;6209218;23;20036;-82
2024/02/02 02:46:51;;;;;;;16.80;8.05;;;3.30;99.90;;;;;;6209357;23;19997;-81
2024/02/02 02:49:20;;;;;;;12.90;5.20;;;3.20;99.90;;;;;;6209602;23;20017;-83
2024/02/02 02:51:49;;;;;;;13.60;4.70;;;3.10;99.90;;;;;;6209067;23;20021;-83
2024/02/02 02:54:19;;;;;;;12.30;4.85;;;3.00;99.90;;;;;;6209310;23;20254;-82
2024/02/02 02:56:48;;;;;;;11.13;4.55;;;2.40;99.90;;;;;;6211285;23;20175;-82
2024/02/02 02:59:18;;;;;;;14.30;5.25;;;3.00;99.90;;;;;;6210593;23;20055;-81
2024/02/02 03:01:47;;;;;;;18.45;6.22;;;2.90;99.90;;;;;;6209192;23;20013;-82
2024/02/02 03:04:16;;;;;;;14.15;4.93;;;2.80;99.90;;;;;;6210413;23;20020;-83
2024/02/02 03:06:44;;;;;;;11.23;4.50;;;2.80;99.90;;;;;;6210508;23;20001;-82
2024/02/02 03:09:13;;;;;;;12.88;5.32;;;2.80;99.90;;;;;;6210571;23;20024;-83
2024/02/02 03:11:44;;;;;;;13.98;5.28;;;2.80;99.90;;;;;;6211107;23;19997;-83
2024/02/02 03:14:14;;;;;;;13.68;4.88;;;2.70;99.90;;;;;;6210606;23;20001;-81
2024/02/02 03:16:43;;;;;;;11.50;4.32;;;2.70;99.90;;;;;;6210003;23;20025;-83
2024/02/02 03:19:12;;;;;;;13.07;4.35;;;2.80;99.90;;;;;;6210630;23;20031;-82
2024/02/02 03:21:41;;;;;;;8.65;3.65;;;4.10;99.90;;;;;;6210361;23;20009;-82
2024/02/02 03:24:10;;;;;;;10.32;3.47;;;4.40;99.90;;;;;;6214812;23;20020;-82
2024/02/02 03:26:39;;;;;;;10.45;4.20;;;2.60;99.90;;;;;;6215574;23;20024;-81
2024/02/02 03:29:09;;;;;;;12.57;4.25;;;2.50;99.90;;;;;;6243141;23;20038;-83
2024/02/02 03:31:41;;;;;;;10.77;3.67;;;2.50;99.90;;;;;;6216133;23;20040;-81
2024/02/02 03:34:10;;;;;;;9.63;3.90;;;2.50;99.90;;;;;;6242579;23;20077;-81
2024/02/02 03:36:39;;;;;;;9.82;4.00;;;2.50;99.90;;;;;;6216482;23;20024;-81
2024/02/02 03:39:09;;;;;;;11.05;3.97;;;2.50;99.90;;;;;;6215473;23;20020;-82
2024/02/02 03:41:37;;;;;;;17.73;8.27;;;2.90;99.90;;;;;;6210947;23;20020;-76
2024/02/02 03:44:06;;;;;;;42.47;22.30;;;2.50;99.90;;;;;;6190735;23;20803;-76
2024/02/02 03:46:36;;;;;;;27.60;12.88;;;2.40;99.90;;;;;;6190472;23;20371;-77
2024/02/02 03:49:04;;;;;;;16.63;6.75;;;2.40;99.90;;;;;;6191471;23;20031;-76
2024/02/02 03:51:33;;;;;;;80.60;36.88;;;2.50;99.90;;;;;;6191647;23;20025;-76
2024/02/02 03:54:01;;;;;;;69.53;33.03;;;2.40;99.90;;;;;;6191528;23;20108;-77
2024/02/02 03:56:31;;;;;;;9.43;3.88;;;2.40;99.90;;;;;;6219017;23;20087;-76
2024/02/02 03:59:00;;;;;;;9.82;3.75;;;2.60;99.90;;;;;;6218684;23;20020;-76
2024/02/02 04:01:31;;;;;;;8.55;3.50;;;2.70;99.90;;;;;;6191896;23;20507;-76
2024/02/02 04:04:04;;;;;;;9.60;2.92;;;2.70;99.90;;;;;;6191672;23;20020;-76
2024/02/02 04:06:33;;;;;;;14.00;4.75;;;2.80;99.90;;;;;;6192232;23;20031;-76
2024/02/02 04:09:02;;;;;;;7.38;2.92;;;3.00;99.90;;;;;;6190986;23;20358;-77
2024/02/02 04:11:32;;;;;;;6.28;1.92;;;2.90;99.90;;;;;;6191029;23;20017;-76
2024/02/02 04:14:00;;;;;;;8.77;2.80;;;2.90;99.90;;;;;;6191345;23;20074;-76
2024/02/02 04:16:30;;;;;;;9.98;2.65;;;2.90;99.90;;;;;;6191424;23;20031;-76
2024/02/02 04:19:05;;;;;;;8.32;2.33;;;2.90;99.90;;;;;;6191194;23;20036;-77
2024/02/02 04:21:41;;;;;;;6.47;1.75;;;2.90;99.90;;;;;;6218147;23;20466;-77
2024/02/02 04:24:12;;;;;;;7.22;1.80;;;2.80;99.90;;;;;;6217921;23;20012;-78
2024/02/02 04:26:41;;;;;;;9.27;2.60;;;2.90;99.90;;;;;;6190958;23;20020;-76
2024/02/02 04:29:10;;;;;;;7.50;2.28;;;3.10;99.90;;;;;;6190902;23;20024;-76
2024/02/02 04:31:39;;;;;;;9.70;2.53;;;3.10;99.90;;;;;;6191281;23;20032;-77
2024/02/02 04:34:11;;;;;;;11.73;3.47;;;3.20;99.90;;;;;;6191044;23;20023;-76
2024/02/02 04:36:41;;;;;;;10.07;3.25;;;3.30;99.90;;;;;;6190830;23;20027;-75
2024/02/02 04:39:10;;;;;;;6.18;1.33;;;3.30;99.90;;;;;;6190854;23;20028;-76
2024/02/02 04:41:40;;;;;;;2.65;1.02;;;3.30;99.90;;;;;;6217153;23;20860;-76
2024/02/02 04:44:09;;;;;;;6.22;1.33;;;3.30;99.90;;;;;;6189997;23;20448;-76
2024/02/02 04:46:37;;;;;;;7.32;1.50;;;3.20;99.90;;;;;;6189602;23;20453;-76
2024/02/02 04:49:11;;;;;;;7.45;1.65;;;3.20;99.90;;;;;;6217621;23;20021;-76
2024/02/02 04:51:40;;;;;;;8.35;2.47;;;3.10;99.90;;;;;;6192598;23;20368;-80
2024/02/02 04:54:09;;;;;;;8.52;2.85;;;3.00;99.90;;;;;;6214525;23;20020;-80
2024/02/02 04:56:38;;;;;;;12.63;3.05;;;2.80;99.90;;;;;;6214985;23;20016;-82
2024/02/02 04:59:06;;;;;;;11.00;3.65;;;2.90;99.90;;;;;;6240374;23;20016;-80
2024/02/02 05:01:35;;;;;;;11.40;3.65;;;2.90;99.90;;;;;;6214640;23;20017;-80
2024/02/02 05:04:05;;;;;;;11.73;4.18;;;2.80;99.90;;;;;;6214248;23;19997;-81
2024/02/02 05:06:35;;;;;;;8.90;4.57;;;2.70;99.90;;;;;;6214867;23;20021;-80
2024/02/02 05:09:04;;;;;;;8.20;2.95;;;2.70;99.90;;;;;;6214692;23;20013;-81
2024/02/02 05:11:32;;;;;;;8.48;3.83;;;2.80;99.90;;;;;;6214377;23;20009;-81
2024/02/02 05:14:01;;;;;;;16.05;4.38;;;2.70;99.90;;;;;;6214462;23;20045;-84
2024/02/02 05:16:30;;;;;;;7.90;2.67;;;2.70;99.90;;;;;;6213131;23;20013;-82
2024/02/02 05:18:59;;;;;;;12.18;2.30;;;2.70;99.90;;;;;;6214200;23;20011;-80
2024/02/02 05:21:28;;;;;;;5.95;2.50;;;2.40;99.90;;;;;;6242347;23;20039;-81
2024/02/02 05:23:59;;;;;;;6.18;2.50;;;2.00;99.90;;;;;;6242124;23;20008;-82
2024/02/02 05:26:47;;;;;;;7.72;1.80;;;2.50;99.90;;;;;;6217066;23;20039;-83
2024/02/02 05:29:16;;;;;;;3.70;1.40;;;2.40;99.90;;;;;;6241400;23;20001;-80
2024/02/02 05:31:45;;;;;;;7.25;1.63;;;2.30;99.90;;;;;;6241980;23;20023;-80
2024/02/02 05:34:14;;;;;;;6.63;1.60;;;1.60;99.90;;;;;;6216782;23;20011;-82
2024/02/02 05:36:44;;;;;;;6.47;1.77;;;2.30;99.90;;;;;;6216576;23;20044;-81
2024/02/02 05:39:14;;;;;;;21.20;10.05;;;2.30;99.90;;;;;;6216948;23;20007;-82
2024/02/02 05:41:43;;;;;;;22.83;10.48;;;2.20;99.90;;;;;;6241764;23;20009;-82
2024/02/02 05:44:14;;;;;;;22.40;10.90;;;2.50;99.90;;;;;;6216288;23;20047;-81
2024/02/02 05:46:43;;;;;;;11.80;4.07;;;2.20;99.90;;;;;;6217041;23;20020;-80
2024/02/02 05:49:12;;;;;;;12.32;4.88;;;2.10;99.90;;;;;;6216882;23;20031;-81
2024/02/02 05:51:40;;;;;;;20.02;7.70;;;2.10;99.90;;;;;;6217218;23;20036;-80
2024/02/02 05:54:09;;;;;;;39.95;16.17;;;2.10;99.90;;;;;;6217225;23;20000;-80
2024/02/02 05:56:40;;;;;;;17.10;5.68;;;2.10;99.90;;;;;;6216834;23;20024;-80
2024/02/02 05:59:09;;;;;;;22.40;8.90;;;2.50;99.90;;;;;;6216659;23;20017;-80
2024/02/02 06:01:38;;;;;;;16.75;8.32;;;1.90;99.90;;;;;;6216436;23;20047;-83
2024/02/02 06:04:07;;;;;;;21.20;8.48;;;3.30;99.90;;;;;;6203451;23;20044;-79
2024/02/02 06:06:35;;;;;;;14.88;6.10;;;2.00;99.90;;;;;;6229712;23;20020;-78
2024/02/02 06:09:05;;;;;;;12.35;4.90;;;2.00;99.90;;;;;;6203348;23;20020;-79
2024/02/02 06:11:33;;;;;;;18.90;8.60;;;2.10;99.90;;;;;;6201874;23;20036;-79
2024/02/02 06:14:03;;;;;;;9.50;3.75;;;2.00;99.90;;;;;;6200404;23;20029;-79
2024/02/02 06:16:32;;;;;;;14.10;4.95;;;2.00;99.90;;;;;;6200273;23;20028;-79
2024/02/02 06:19:01;;;;;;;10.30;3.90;;;2.20;99.90;;;;;;6199506;23;20031;-79
2024/02/02 06:21:30;;;;;;;8.93;2.95;;;2.00;99.90;;;;;;6226089;23;20040;-79
2024/02/02 06:23:59;;;;;;;11.00;3.50;;;2.00;99.90;;;;;;6199331;23;20039;-79
2024/02/02 06:26:27;;;;;;;14.05;4.47;;;1.90;99.90;;;;;;6200626;23;20048;-80
2024/02/02 06:28:56;;;;;;;21.50;7.25;;;2.00;99.90;;;;;;6209098;23;20025;-79
2024/02/02 06:31:27;;;;;;;31.08;10.98;;;1.90;99.90;;;;;;6201476;23;20028;-79
2024/02/02 06:33:55;;;;;;;19.52;7.63;;;1.90;99.90;;;;;;6207710;23;20048;-80
2024/02/02 06:36:26;;;;;;;18.25;5.53;;;1.90;99.90;;;;;;6207866;23;20027;-80
2024/02/02 06:38:56;;;;;;;15.43;6.57;;;1.90;99.90;;;;;;6208553;23;20107;-81
2024/02/02 06:41:25;;;;;;;15.35;6.93;;;1.90;99.90;;;;;;6237985;23;20060;-79
2024/02/02 06:43:53;;;;;;;16.70;7.15;;;2.00;99.90;;;;;;6232110;23;20017;-80
2024/02/02 06:46:22;;;;;;;23.02;8.88;;;2.00;99.90;;;;;;6202888;23;20044;-79
2024/02/02 06:48:52;;;;;;;12.48;5.28;;;2.10;99.90;;;;;;6231788;23;20013;-79
2024/02/02 06:51:21;;;;;;;30.02;11.25;;;2.10;99.90;;;;;;6229938;23;20112;-79
2024/02/02 06:53:51;;;;;;;25.15;10.18;;;2.10;99.90;;;;;;6201854;23;20016;-79
2024/02/02 06:56:36;;;;;;;21.80;12.18;;;2.10;99.90;;;;;;6203104;23;20079;-79
2024/02/02 06:59:05;;;;;;;19.73;7.68;;;2.10;99.90;;;;;;6202708;23;20020;-79
2024/02/02 07:02:32;;;;;;;27.05;11.88;;;2.30;99.90;;;;;;6211769;23;20020;-81
2024/02/02 08:59:47;;;;;;;10.88;1.80;;;5.40;99.90;;;;;;6164300;22;20055;-85
2024/02/02 09:02:37;;;;;;;6.00;1.67;;;5.40;99.90;;;;;;6209109;23;20025;-87
2024/02/02 09:05:51;;;;;;;5.22;1.90;;;5.40;99.90;;;;;;6208820;23;20076;-87
2024/02/02 09:08:55;;;;;;;8.27;2.03;;;5.30;99.90;;;;;;6146817;23;20038;-85
2024/02/02 09:41:13;;;;;;;8.55;2.65;;;6.00;99.90;;;;;;6150823;23;20032;-81
2024/02/02 09:44:40;;;;;;;6.57;1.23;;;5.90;99.90;;;;;;6091627;23;20027;-80
2024/02/02 09:48:09;;;;;;;10.45;2.55;;;5.80;99.90;;;;;;5975041;24;20024;-80
2024/02/02 09:51:36;;;;;;;6.47;2.20;;;5.80;99.90;;;;;;5842520;24;20039;-80
2024/02/02 09:54:44;;;;;;;10.50;2.63;;;5.90;99.90;;;;;;5842964;24;20006;-77
2024/02/02 09:58:05;;;;;;;13.05;2.65;;;6.00;99.90;;;;;;5848216;24;20023;-79
2024/02/02 10:01:00;;;;;;;3.93;1.57;;;6.00;99.90;;;;;;5844084;24;20007;-77
2024/02/02 10:03:45;;;;;;;8.90;2.25;;;6.00;99.90;;;;;;5845465;24;20295;-76
2024/02/02 10:06:57;;;;;;;8.50;2.00;;;6.20;99.90;;;;;;5829959;24;20027;-81
2024/02/02 10:10:45;;;;;;;11.02;1.73;;;6.00;99.90;;;;;;5898054;24;20045;-81
2024/02/02 10:13:43;;;;;;;10.05;2.20;;;6.10;99.90;;;;;;5951627;24;20021;-80
2024/02/02 10:17:09;;;;;;;6.80;1.75;;;6.20;99.90;;;;;;6016309;23;20115;-80
2024/02/02 10:25:01;;;;;;;8.93;1.90;;;6.20;99.90;;;;;;5977271;23;20001;-81
2024/02/02 10:28:17;;;;;;;6.43;2.17;;;6.50;99.90;;;;;;6041723;23;20011;-81
2024/02/02 10:34:44;;;;;;;9.00;2.83;;;6.60;99.90;;;;;;5984363;24;20028;-81
2024/02/02 10:37:50;;;;;;;6.60;2.00;;;6.50;99.90;;;;;;5930082;24;20017;-80
2024/02/02 10:40:42;;;;;;;9.98;2.53;;;6.60;99.90;;;;;;5951707;24;20025;-80
2024/02/02 10:44:02;;;;;;;7.05;1.70;;;7.00;99.90;;;;;;5951433;24;20037;-80
2024/02/02 10:46:59;;;;;;;6.35;2.20;;;6.50;99.90;;;;;;5952315;23;20060;-82
2024/02/02 10:50:03;;;;;;;7.68;2.00;;;6.60;99.90;;;;;;5950757;24;20012;-82
2024/02/02 10:52:49;;;;;;;;;;;5.50;99.90;;;;;;5951985;23;20014;-80
2024/02/02 10:59:03;;;;;;;10.52;2.53;;;6.50;99.90;;;;;;6039599;23;20019;-79
2024/02/02 11:02:09;;;;;;;8.50;2.15;;;6.50;99.90;;;;;;6035038;23;20033;-76
2024/02/02 11:08:06;;;;;;;8.43;1.85;;;6.40;99.90;;;;;;5982396;24;20056;-80
2024/02/02 11:17:57;;;;;;;7.57;3.60;;;6.20;99.90;;;;;;5992649;24;20076;-81
2024/02/02 11:34:06;;;;;;;9.30;1.85;;;6.50;99.90;;;;;;5898297;24;20031;-81
2024/02/02 11:38:03;;;;;;;9.23;2.22;;;6.30;99.90;;;;;;5924101;24;20040;-79
2024/02/02 11:44:59;;;;;;;13.20;2.28;;;6.90;99.90;;;;;;5819516;24;20152;-80
2024/02/02 11:48:36;;;;;;;8.80;2.30;;;6.70;99.90;;;;;;5711095;25;20016;-79
2024/02/02 11:51:40;;;;;;;9.23;2.15;;;6.70;99.90;;;;;;5675781;24;20060;-76
2024/02/02 11:54:56;;;;;;;10.65;2.30;;;6.70;99.90;;;;;;5752474;25;20033;-81
2024/02/02 12:00:48;;;;;;;8.43;2.15;;;7.10;99.90;;;;;;5785653;24;20024;-79
2024/02/02 12:04:19;;;;;;;10.88;2.47;;;6.90;99.90;;;;;;5742924;24;20024;-80
2024/02/02 12:10:32;;;;;;;11.90;2.30;;;7.10;99.90;;;;;;5763853;24;20020;-79
2024/02/02 12:13:21;;;;;;;7.32;2.92;;;7.10;99.90;;;;;;5788324;24;20111;-81
2024/02/02 12:16:23;;;;;;;10.20;2.13;;;7.30;99.90;;;;;;5905427;24;20030;-79
2024/02/02 12:19:34;;;;;;;7.22;2.35;;;7.20;99.90;;;;;;5978680;24;20045;-79
2024/02/02 12:22:29;;;;;;;6.40;1.70;;;7.20;99.90;;;;;;5896260;24;20113;-80
2024/02/02 12:25:27;;;;;;;7.47;3.33;;;7.30;99.90;;;;;;5905799;24;20030;-80
2024/02/02 12:28:08;;;;;;;9.48;2.67;;;7.40;99.90;;;;;;5923154;24;20045;-81
2024/02/02 12:31:08;;;;;;;9.85;2.28;;;7.50;99.90;;;;;;5896977;24;20061;-80
2024/02/02 12:34:22;;;;;;;8.88;2.10;;;7.30;99.90;;;;;;5897115;24;20034;-79
2024/02/02 12:37:22;;;;;;;8.85;2.00;;;7.40;99.90;;;;;;5895590;24;20022;-80
2024/02/02 12:44:09;;;;;;;7.35;1.77;;;7.30;99.90;;;;;;5928310;24;20022;-79
2024/02/02 12:49:39;;;;;;;6.20;1.92;;;5.60;99.90;;;;;;5964847;23;20004;-80
2024/02/02 12:52:12;;;;;;;;;;;7.70;99.90;;;;;;6015064;23;19999;-80
2024/02/02 12:54:52;;;;;;;4.03;1.20;;;7.30;99.90;;;;;;6039964;23;19924;-80
2024/02/02 12:57:26;;;;;;;3.53;1.65;;;7.30;99.90;;;;;;6039716;23;20043;-80
2024/02/02 12:59:59;;;;;;;9.98;2.72;;;7.30;99.90;;;;;;6016055;23;20429;-82
2024/02/02 13:02:30;;;;;;;7.50;1.90;;;7.40;99.90;;;;;;6021479;23;20049;-80
2024/02/02 13:05:10;;;;;;;12.55;2.13;;;7.40;99.90;;;;;;6034460;23;20035;-79
2024/02/02 13:07:58;;;;;;;6.13;1.80;;;7.30;99.90;;;;;;5953298;24;20007;-79
2024/02/02 13:14:06;;;;;;;10.65;2.10;;;7.40;99.90;;;;;;5952468;23;20023;-79
2024/02/02 13:16:43;;;;;;;3.15;1.50;;;7.40;99.90;;;;;;5950418;24;20017;-78
2024/02/02 13:19:42;;;;;;;9.95;1.58;;;7.40;99.90;;;;;;5951363;24;20013;-82
2024/02/02 13:22:39;;;;;;;7.40;1.67;;;7.30;99.90;;;;;;5949403;24;20025;-81
2024/02/02 13:25:24;;;;;;;5.70;1.50;;;7.40;99.90;;;;;;5980475;23;20027;-82
2024/02/02 13:27:56;;;;;;;5.85;1.25;;;7.40;99.90;;;;;;6120607;23;20034;-81
2024/02/02 13:31:04;;;;;;;6.38;1.40;;;7.70;99.90;;;;;;6095930;23;20018;-80
2024/02/02 13:34:36;;;;;;;8.77;2.10;;;7.30;99.90;;;;;;6029028;23;20054;-79
2024/02/02 13:38:02;;;;;;;9.50;2.60;;;7.30;99.90;;;;;;6040428;23;20000;-79
2024/02/02 13:44:02;;;;;;;8.98;1.98;;;6.80;99.90;;;;;;6033257;23;20028;-78
2024/02/02 13:47:39;;;;;;;11.30;1.38;;;7.20;99.90;;;;;;5980929;23;20028;-81
2024/02/02 13:54:41;;;;;;;6.10;1.35;;;7.10;99.90;;;;;;5769325;24;20016;-80
2024/02/02 13:57:37;;;;;;;6.45;1.40;;;6.50;99.90;;;;;;5768709;24;20062;-79
2024/02/02 14:18:45;;;;;;;6.75;1.67;;;6.70;99.90;;;;;;5835575;24;20026;-79
2024/02/02 14:21:28;;;;;;;6.07;1.33;;;6.70;99.90;;;;;;5838592;24;20047;-80
2024/02/02 14:24:22;;;;;;;4.00;1.73;;;6.60;99.90;;;;;;5900741;24;20522;-79
2024/02/02 14:30:08;;;;;;;4.25;1.30;;;6.70;99.90;;;;;;5943120;23;20003;-79
2024/02/02 14:32:49;;;;;;;5.80;1.10;;;6.90;99.90;;;;;;6009640;23;20497;-78
2024/02/02 14:36:19;;;;;;;7.78;1.00;;;6.60;99.90;;;;;;6035893;23;20059;-80
2024/02/02 14:39:27;;;;;;;3.30;1.20;;;5.50;99.90;;;;;;6016337;23;20035;-80
2024/02/02 14:42:34;;;;;;;5.05;1.00;;;6.70;99.90;;;;;;5902093;24;20080;-80
2024/02/02 14:45:25;;;;;;;5.83;1.83;;;6.80;99.90;;;;;;5923042;24;20034;-77
2024/02/02 14:48:23;;;;;;;7.47;1.40;;;6.50;99.90;;;;;;5931983;24;20061;-78
2024/02/02 14:54:30;;;;;;;7.95;1.55;;;6.70;99.90;;;;;;5925201;24;20026;-79
2024/02/02 15:00:43;;;;;;;15.20;5.50;;;7.90;99.90;;;;;;5871648;24;20064;-77
2024/02/02 15:04:10;;;;;;;9.52;3.50;;;6.70;99.90;;;;;;5838870;24;20034;-79
2024/02/02 15:07:21;;;;;;;5.63;1.95;;;6.70;99.90;;;;;;5811898;24;20023;-78
2024/02/02 15:14:16;;;;;;;11.82;6.35;;;5.60;99.90;;;;;;5822253;24;20015;-78
2024/02/02 15:17:58;;;;;;;14.27;6.80;;;6.50;99.90;;;;;;5844245;24;20078;-78
2024/02/02 15:21:47;;;;;;;8.68;3.17;;;6.50;99.90;;;;;;5851197;24;20011;-79
2024/02/02 15:25:36;;;;;;;7.35;1.50;;;6.20;99.90;;;;;;5740210;24;20020;-79
2024/02/02 15:28:16;;;;;;;11.73;3.17;;;6.20;99.90;;;;;;5718781;25;20013;-78
2024/02/02 15:30:47;;;;;;;12.50;3.70;;;6.20;99.90;;;;;;5750331;24;20083;-80
2024/02/02 15:34:23;;;;;;;7.32;2.47;;;6.20;99.90;;;;;;5790977;24;20126;-78
2024/02/02 15:37:04;;;;;;;12.25;2.40;;;6.20;99.90;;;;;;5774826;24;20042;-78
2024/02/02 15:39:56;;;;;;;8.85;2.78;;;5.40;99.90;;;;;;5844671;24;20030;-78
2024/02/02 15:42:39;;;;;;;20.77;8.65;;;5.00;99.90;;;;;;5852178;24;20047;-78
2024/02/02 15:46:00;;;;;;;11.43;5.90;;;6.00;99.90;;;;;;5870125;24;20042;-78
2024/02/02 15:48:58;;;;;;;10.23;5.70;;;5.90;99.90;;;;;;5847971;24;20026;-79
2024/02/02 15:52:33;;;;;;;10.27;4.47;;;5.90;99.90;;;;;;5844341;24;20072;-79
2024/02/02 16:06:44;;;;;;;16.85;4.55;;;5.50;99.90;;;;;;5953712;24;20044;-80
2024/02/02 16:10:34;;;;;;;11.27;3.53;;;5.50;99.90;;;;;;5967306;24;20035;-77
2024/02/02 16:13:54;;;;;;;4.65;2.05;;;5.50;99.90;;;;;;6015663;23;20110;-77
2024/02/02 16:16:23;;;;;;;7.05;2.10;;;5.40;99.90;;;;;;6068485;23;20018;-77
2024/02/02 16:18:57;;;;;;;8.95;2.35;;;5.30;99.90;;;;;;6086474;23;20022;-77
2024/02/02 16:21:29;;;;;;;11.07;2.70;;;5.20;99.90;;;;;;6115865;23;20046;-77
2024/02/02 16:24:01;;;;;;;8.82;2.97;;;5.20;99.90;;;;;;6174215;23;20017;-78
2024/02/02 16:26:31;;;;;;;14.10;3.35;;;4.50;99.90;;;;;;6153807;23;20024;-78
2024/02/02 16:29:11;;;;;;;10.05;4.03;;;5.00;99.90;;;;;;6212107;23;20021;-77
2024/02/02 16:31:44;;;;;;;14.88;4.53;;;5.00;99.90;;;;;;6213300;23;20016;-77
2024/02/02 16:34:22;;;;;;;9.65;3.45;;;5.30;99.90;;;;;;6240717;23;20016;-81
2024/02/02 16:37:24;;;;;;;13.13;4.20;;;5.10;99.90;;;;;;6160474;23;20010;-82
2024/02/02 16:44:22;;;;;;;20.85;6.82;;;5.00;99.90;;;;;;6094527;23;20021;-80
2024/02/02 16:47:49;;;;;;;19.60;7.80;;;4.90;99.90;;;;;;6094075;23;20038;-81
2024/02/02 17:09:28;;;;;;;26.10;11.13;;;4.90;99.90;;;;;;5870796;24;20006;-80
2024/02/02 17:13:05;;;;;;;24.40;10.07;;;4.80;99.90;;;;;;5883591;24;20010;-81
2024/02/02 17:15:39;;;;;;;22.83;9.60;;;4.70;99.90;;;;;;5868801;24;20009;-79
2024/02/02 17:27:02;;;;;;;13.98;5.68;;;4.70;99.90;;;;;;5770724;24;20143;-82
2024/02/02 17:29:48;;;;;;;20.13;6.63;;;5.20;99.90;;;;;;5846331;24;20014;-81
2024/02/02 17:35:31;;;;;;;18.38;7.00;;;4.60;99.90;;;;;;5845994;24;20010;-80
2024/02/02 17:38:20;;;;;;;21.63;7.07;;;4.70;99.90;;;;;;5826368;24;20033;-82
2024/02/02 17:40:53;;;;;;;24.77;8.43;;;4.60;99.90;;;;;;5846092;24;20070;-81
2024/02/02 17:43:30;;;;;;;18.17;7.63;;;4.60;99.90;;;;;;5862951;24;20018;-80
2024/02/02 17:46:06;;;;;;;18.63;6.97;;;4.70;99.90;;;;;;5873039;24;20018;-77
2024/02/02 17:48:43;;;;;;;20.70;7.18;;;4.60;99.90;;;;;;5893493;24;20018;-78
2024/02/02 17:51:23;;;;;;;18.00;6.60;;;4.60;99.90;;;;;;5895634;24;20022;-77
2024/02/02 17:54:20;;;;;;;19.58;7.50;;;5.00;99.90;;;;;;5841378;24;20057;-77
2024/02/02 17:56:53;;;;;;;25.30;10.00;;;4.60;99.90;;;;;;5864819;24;20010;-78
2024/02/02 17:59:56;;;;;;;84.43;30.63;;;4.60;99.90;;;;;;5893657;24;20036;-76
2024/02/02 18:02:39;;;;;;;56.05;23.73;;;4.50;99.90;;;;;;5892714;24;20034;-77
2024/02/02 18:05:13;;;;;;;;;;;4.50;99.90;;;;;;5925344;24;20045;-78
2024/02/02 18:07:43;;;;;;;79.90;38.15;;;4.60;99.90;;;;;;5975784;24;19919;-77
2024/02/02 18:10:18;;;;;;;62.33;32.45;;;4.50;99.90;;;;;;6004642;24;20040;-78
2024/02/02 18:12:53;;;;;;;36.47;19.75;;;5.30;99.90;;;;;;6000571;23;20051;-78
2024/02/02 18:15:30;;;;;;;80.28;34.17;;;5.80;99.90;;;;;;5979534;24;20028;-77
2024/02/02 18:18:01;;;;;;;75.93;32.88;;;4.50;99.90;;;;;;6003732;23;20034;-77
2024/02/02 18:20:33;;;;;;;;;;;4.50;99.90;;;;;;6063596;23;20056;-77
2024/02/02 18:23:05;;;;;;;59.42;26.55;;;4.50;99.90;;;;;;6087512;23;19971;-78
2024/02/02 18:25:37;;;;;;;63.30;28.15;;;4.60;99.90;;;;;;6059968;23;20083;-78
2024/02/02 18:28:12;;;;;;;52.00;21.70;;;4.50;99.90;;;;;;6085372;23;20026;-77
2024/02/02 18:30:52;;;;;;;39.80;20.60;;;5.70;99.90;;;;;;6085980;23;20027;-77
2024/02/02 18:33:23;;;;;;;151.98;57.28;;;4.60;99.90;;;;;;6087719;23;20029;-77
2024/02/02 18:35:53;;;;;;;78.55;28.08;;;4.60;99.90;;;;;;6063592;23;20041;-77
2024/02/02 18:38:25;;;;;;;60.08;24.17;;;4.30;99.90;;;;;;6087010;23;20014;-77
2024/02/02 18:40:58;;;;;;;59.47;24.45;;;4.50;99.90;;;;;;6088971;23;20033;-77
2024/02/02 18:43:29;;;;;;;53.00;22.58;;;4.60;99.90;;;;;;6114763;23;20022;-77
2024/02/02 18:46:02;;;;;;;52.88;22.50;;;4.60;99.90;;;;;;6119227;23;20076;-77
2024/02/02 18:48:35;;;;;;;44.10;17.75;;;4.60;99.90;;;;;;6092587;23;20022;-77
2024/02/02 18:51:17;;;;;;;42.90;18.73;;;4.60;99.90;;;;;;6061219;23;20098;-77
2024/02/02 18:53:52;;;;;;;50.80;20.98;;;4.50;99.90;;;;;;6029372;23;20055;-78